Time;durP1;ratioP1;P1;durP2;ratioP2;P2;SDS_P1;SDS_P2;PMS_P1;PMS_P2;Temp;Humidity;BMP_temperature;BMP_pressure;BME280_temperature;BME280_humidity;BME280_pressure;Samples;Min_cycle;Max_cycle;Signal;HPM_P1;HPM_P2
2024/03/24 00:01:29;;;;;;;0.30;0.20;;;;;;;7.81;90.82;99516.97;5025934;28;20250;-47
2024/03/24 00:03:55;;;;;;;0.30;0.20;;;;;;;7.77;90.38;99516.22;5021409;28;20811;-47
2024/03/24 00:06:20;;;;;;;0.30;0.20;;;;;;;7.78;90.19;99514.44;5036109;28;20255;-47
2024/03/24 00:08:46;;;;;;;0.30;0.20;;;;;;;7.66;91.06;99518.31;5032318;28;20245;-47
2024/03/24 00:11:11;;;;;;;0.30;0.20;;;;;;;7.73;90.12;99514.59;5032707;28;20753;-47
2024/03/24 00:13:37;;;;;;;0.30;0.20;;;;;;;7.79;90.78;99511.75;5035361;28;20266;-47
2024/03/24 00:16:03;;;;;;;0.30;0.20;;;;;;;7.78;90.06;99510.00;5035924;28;20747;-47
2024/03/24 00:18:29;;;;;;;0.30;0.20;;;;;;;7.87;89.55;99515.03;5033355;28;20215;-47
2024/03/24 00:20:54;;;;;;;0.30;0.20;;;;;;;7.96;89.31;99504.19;5026122;28;20467;-48
2024/03/24 00:23:20;;;;;;;0.30;0.10;;;;;;;7.89;89.52;99493.81;5031019;28;20240;-48
2024/03/24 00:25:45;;;;;;;0.30;0.20;;;;;;;7.92;89.13;99496.38;5033930;28;20214;-47
2024/03/24 00:28:11;;;;;;;0.30;0.17;;;;;;;8.02;88.22;99493.41;5022027;28;20220;-48
2024/03/24 00:30:36;;;;;;;0.30;0.20;;;;;;;7.84;87.20;99486.03;5034713;28;20212;-49
2024/03/24 00:33:03;;;;;;;0.30;0.20;;;;;;;7.86;87.15;99486.00;5023220;28;20274;-47
2024/03/24 00:35:28;;;;;;;0.30;0.20;;;;;;;7.75;87.21;99493.38;5018368;28;20209;-47
2024/03/24 00:37:54;;;;;;;0.30;0.20;;;;;;;7.73;87.64;99483.72;5035201;28;20455;-47
2024/03/24 00:40:19;;;;;;;0.30;0.20;;;;;;;7.77;87.26;99478.31;5035128;28;20697;-47
2024/03/24 00:42:45;;;;;;;0.30;0.20;;;;;;;7.70;87.41;99485.59;5021853;28;20223;-48
2024/03/24 00:45:10;;;;;;;0.30;0.20;;;;;;;7.42;88.18;99482.88;5034914;28;20282;-47
2024/03/24 00:47:36;;;;;;;0.30;0.20;;;;;;;7.34;88.81;99479.59;5034841;28;20240;-47
2024/03/24 00:50:03;;;;;;;0.30;0.20;;;;;;;7.39;88.15;99477.66;5035924;28;20250;-47
2024/03/24 00:52:30;;;;;;;0.30;0.20;;;;;;;7.36;88.89;99475.97;5027127;28;20220;-47
2024/03/24 00:54:56;;;;;;;0.30;0.20;;;;;;;7.31;88.09;99471.75;5030781;28;20555;-47
2024/03/24 00:57:21;;;;;;;0.30;0.20;;;;;;;7.15;89.41;99473.97;5035387;28;20241;-47
2024/03/24 00:59:47;;;;;;;0.30;0.20;;;;;;;7.11;88.67;99477.56;5031284;28;20241;-47
2024/03/24 01:02:13;;;;;;;0.30;0.20;;;;;;;7.22;88.70;99464.06;5023406;28;20303;-47
2024/03/24 01:04:38;;;;;;;0.30;0.20;;;;;;;7.44;87.49;99467.84;5033317;28;20645;-48
2024/03/24 01:07:04;;;;;;;0.30;0.20;;;;;;;7.37;87.73;99459.22;5034908;28;20634;-47
2024/03/24 01:09:29;;;;;;;0.30;0.20;;;;;;;7.41;87.85;99452.94;5032586;28;20247;-47
2024/03/24 01:11:55;;;;;;;0.30;0.20;;;;;;;7.40;87.75;99459.16;5034751;28;20211;-47
2024/03/24 01:14:20;;;;;;;0.30;0.20;;;;;;;7.43;87.22;99456.41;5021280;28;20220;-47
2024/03/24 01:16:46;;;;;;;0.30;0.20;;;;;;;7.32;87.52;99455.84;5034871;28;20227;-47
2024/03/24 01:19:11;;;;;;;0.30;0.20;;;;;;;7.42;87.23;99445.88;5034414;28;20236;-48
2024/03/24 01:21:37;;;;;;;0.30;0.20;;;;;;;7.20;87.85;99452.69;5023718;28;20213;-46
2024/03/24 01:24:03;;;;;;;0.30;0.20;;;;;;;7.25;87.17;99453.41;5031389;28;20264;-47
2024/03/24 01:26:29;;;;;;;0.30;0.20;;;;;;;7.20;86.59;99445.63;5023973;28;20216;-47
2024/03/24 01:28:54;;;;;;;0.30;0.20;;;;;;;7.36;86.56;99448.69;5032424;28;20566;-47
2024/03/24 01:31:20;;;;;;;0.30;0.20;;;;;;;7.24;85.93;99447.25;5024073;28;20957;-47
2024/03/24 01:33:45;;;;;;;0.30;0.20;;;;;;;7.36;86.08;99448.69;5031973;28;20234;-47
2024/03/24 01:36:11;;;;;;;0.30;0.10;;;;;;;7.45;84.94;99444.91;5034154;28;20204;-48
2024/03/24 01:38:37;;;;;;;0.30;0.20;;;;;;;7.38;86.28;99445.06;5034294;28;20274;-47
2024/03/24 01:41:02;;;;;;;0.30;0.20;;;;;;;7.34;85.87;99443.44;5034569;28;20295;-47
2024/03/24 01:43:28;;;;;;;0.30;0.20;;;;;;;7.41;85.95;99433.56;5030726;28;20224;-47
2024/03/24 01:45:53;;;;;;;0.30;0.20;;;;;;;7.51;87.65;99424.44;5029870;28;20219;-47
2024/03/24 01:48:19;;;;;;;0.30;0.20;;;;;;;7.43;88.82;99419.38;5025556;28;20294;-47
2024/03/24 01:50:45;;;;;;;0.30;0.20;;;;;;;7.43;88.74;99407.94;5036339;28;20223;-47
2024/03/24 01:53:11;;;;;;;0.30;0.20;;;;;;;7.53;89.31;99406.72;5027720;28;20617;-48
2024/03/24 01:55:36;;;;;;;0.30;0.10;;;;;;;7.58;89.79;99401.31;5028066;28;20517;-47
2024/03/24 01:58:03;;;;;;;0.30;0.20;;;;;;;7.50;89.19;99398.91;5021635;28;20216;-47
2024/03/24 02:00:29;;;;;;;0.30;0.20;;;;;;;7.61;90.10;99410.03;5026704;28;20698;-47
2024/03/24 02:02:55;;;;;;;0.30;0.20;;;;;;;7.60;89.90;99413.59;5028455;28;20458;-47
2024/03/24 02:05:27;;;;;;;0.30;0.10;;;;;;;7.61;90.92;99410.03;5027595;28;20883;-47
2024/03/24 02:07:54;;;;;;;0.30;0.20;;;;;;;7.47;90.10;99408.72;5028386;28;20729;-48
2024/03/24 02:10:23;;;;;;;0.30;0.20;;;;;;;7.43;90.44;99411.47;5033992;28;21029;-50
2024/03/24 02:12:49;;;;;;;0.30;0.20;;;;;;;7.57;90.57;99411.03;5034927;28;20458;-50
2024/03/24 02:15:14;;;;;;;0.30;0.20;;;;;;;7.44;88.97;99409.69;5033969;28;20467;-50
2024/03/24 02:17:43;;;;;;;0.30;0.20;;;;;;;7.30;88.84;99409.22;5025903;28;20208;-50
2024/03/24 02:20:12;;;;;;;0.30;0.20;;;;;;;7.34;88.61;99406.44;5029626;28;20281;-50
2024/03/24 02:22:38;;;;;;;0.30;0.10;;;;;;;7.42;88.36;99404.44;5037888;28;20459;-51
2024/03/24 02:25:04;;;;;;;0.30;0.20;;;;;;;7.26;87.92;99410.19;5037957;28;20488;-50
2024/03/24 02:27:34;;;;;;;0.30;0.20;;;;;;;7.36;87.79;99401.97;5035278;28;20806;-49
2024/03/24 02:29:59;;;;;;;0.30;0.20;;;;;;;7.46;87.66;99391.13;5034350;28;20494;-50
2024/03/24 02:32:28;;;;;;;0.30;0.10;;;;;;;7.38;88.09;99391.34;5030856;28;20463;-50
2024/03/24 02:34:53;;;;;;;0.30;0.20;;;;;;;7.27;87.79;99396.97;5024047;28;20212;-49
2024/03/24 02:37:19;;;;;;;0.30;0.20;;;;;;;7.31;87.11;99393.31;5037555;28;20490;-49
2024/03/24 02:39:45;;;;;;;0.30;0.20;;;;;;;7.17;87.28;99390.22;5037624;28;20232;-49
2024/03/24 02:42:11;;;;;;;0.30;0.13;;;;;;;7.28;86.91;99387.25;5040827;28;20459;-54
2024/03/24 02:44:37;;;;;;;0.30;0.20;;;;;;;7.38;86.52;99386.06;5049498;28;20693;-50
2024/03/24 02:47:03;;;;;;;0.30;0.20;;;;;;;7.35;86.26;99394.06;5037733;28;20224;-49
2024/03/24 02:49:29;;;;;;;0.30;0.20;;;;;;;7.38;85.60;99378.97;5037757;28;20490;-49
2024/03/24 02:51:54;;;;;;;0.30;0.20;;;;;;;7.32;86.93;99373.91;5050646;28;20464;-50
2024/03/24 02:54:20;;;;;;;0.30;0.20;;;;;;;7.18;88.11;99365.50;5034773;28;20236;-49
2024/03/24 02:56:45;;;;;;;0.30;0.20;;;;;;;7.30;89.15;99359.88;5025720;28;20212;-49
2024/03/24 02:59:11;;;;;;;0.30;0.20;;;;;;;7.38;88.92;99357.84;5037231;28;20588;-50
2024/03/24 03:01:37;;;;;;;0.30;0.20;;;;;;;7.32;88.32;99371.25;5032450;28;20224;-50
2024/03/24 03:04:03;;;;;;;0.30;0.20;;;;;;;7.37;87.88;99365.81;5033923;28;20299;-49
2024/03/24 03:06:29;;;;;;;0.30;0.20;;;;;;;7.29;87.86;99368.72;5033915;28;20666;-49
2024/03/24 03:08:55;;;;;;;0.30;0.20;;;;;;;7.39;88.15;99364.00;5026573;28;20495;-49
2024/03/24 03:11:21;;;;;;;0.30;0.10;;;;;;;7.38;88.69;99363.13;5037212;28;20994;-50
2024/03/24 03:13:46;;;;;;;0.30;0.20;;;;;;;7.24;89.04;99357.38;5036764;28;20212;-50
2024/03/24 03:16:12;;;;;;;0.30;0.20;;;;;;;7.31;89.05;99356.31;5033353;28;20581;-49
2024/03/24 03:18:37;;;;;;;0.30;0.10;;;;;;;7.28;88.82;99350.25;5036754;28;20287;-49
2024/03/24 03:21:03;;;;;;;0.30;0.20;;;;;;;7.33;87.94;99356.25;5025935;28;20209;-49
2024/03/24 03:23:28;;;;;;;0.30;0.20;;;;;;;7.37;88.21;99361.41;5026510;28;20228;-50
2024/03/24 03:25:54;;;;;;;0.30;0.20;;;;;;;7.41;87.01;99360.41;5028682;28;20691;-50
2024/03/24 03:28:19;;;;;;;0.30;0.17;;;;;;;7.27;87.46;99354.69;5028157;28;20217;-49
2024/03/24 03:30:45;;;;;;;0.30;0.20;;;;;;;7.34;86.91;99356.22;5032768;28;20248;-50
2024/03/24 03:33:10;;;;;;;0.30;0.20;;;;;;;7.22;87.98;99351.28;5036704;28;20208;-49
2024/03/24 03:35:36;;;;;;;0.30;0.20;;;;;;;7.21;86.90;99344.28;5036749;28;20734;-49
2024/03/24 03:38:01;;;;;;;0.30;0.20;;;;;;;7.31;87.46;99343.09;5036550;28;20307;-49
2024/03/24 03:40:27;;;;;;;0.30;0.20;;;;;;;7.12;87.76;99344.53;5036679;28;20338;-49
2024/03/24 03:42:52;;;;;;;0.30;0.20;;;;;;;7.01;87.99;99347.53;5037248;28;20223;-49
2024/03/24 03:45:18;;;;;;;0.30;0.20;;;;;;;6.63;88.94;99345.97;5031310;28;20244;-47
2024/03/24 03:47:44;;;;;;;0.30;0.20;;;;;;;6.83;88.50;99350.69;5016658;28;20213;-47
2024/03/24 03:50:13;;;;;;;0.30;0.10;;;;;;;6.70;88.17;99346.66;5033943;28;20497;-47
2024/03/24 03:52:39;;;;;;;0.30;0.20;;;;;;;6.54;87.85;99341.81;5038336;28;20678;-47
2024/03/24 03:55:11;;;;;;;0.30;0.10;;;;;;;6.62;88.54;99338.97;5030249;28;20462;-47
2024/03/24 03:57:38;;;;;;;0.30;0.20;;;;;;;6.72;87.63;99331.66;5026416;28;20829;-47
2024/03/24 04:00:10;;;;;;;0.30;0.20;;;;;;;6.53;88.46;99331.28;5033350;28;20491;-47
2024/03/24 04:02:40;;;;;;;0.30;0.20;;;;;;;6.53;87.10;99328.66;5027718;28;20823;-47
2024/03/24 04:05:12;;;;;;;0.30;0.20;;;;;;;6.51;86.94;99330.47;5023128;28;20490;-47
2024/03/24 04:07:39;;;;;;;0.30;0.20;;;;;;;6.44;86.91;99324.50;5036264;28;20508;-47
2024/03/24 04:10:06;;;;;;;0.30;0.20;;;;;;;6.44;87.90;99329.78;5036565;28;20541;-46
2024/03/24 04:12:32;;;;;;;0.30;0.20;;;;;;;6.38;87.38;99327.28;5036173;28;20462;-48
2024/03/24 04:14:59;;;;;;;0.30;0.10;;;;;;;6.39;88.30;99338.72;5020136;28;20460;-47
2024/03/24 04:17:26;;;;;;;0.30;0.20;;;;;;;6.34;86.92;99325.66;5029763;28;20451;-47
2024/03/24 04:19:52;;;;;;;0.30;0.20;;;;;;;6.41;87.45;99326.34;5029631;28;20483;-47
2024/03/24 04:22:18;;;;;;;0.30;0.20;;;;;;;6.38;87.43;99334.34;5036236;28;20482;-47
2024/03/24 04:24:46;;;;;;;0.30;0.10;;;;;;;6.33;86.60;99338.91;5024641;28;21028;-47
2024/03/24 04:27:11;;;;;;;0.30;0.20;;;;;;;6.30;87.10;99337.19;5021669;28;20464;-47
2024/03/24 04:29:37;;;;;;;0.30;0.17;;;;;;;6.27;87.98;99331.13;5036114;28;20511;-48
2024/03/24 04:32:03;;;;;;;0.30;0.10;;;;;;;6.41;87.37;99329.84;5033287;28;20320;-48
2024/03/24 04:34:29;;;;;;;0.30;0.20;;;;;;;6.48;87.28;99331.44;5035754;28;20227;-47
2024/03/24 04:36:54;;;;;;;0.30;0.20;;;;;;;6.50;86.66;99326.09;5035693;28;20455;-47
2024/03/24 04:39:21;;;;;;;0.30;0.20;;;;;;;6.49;86.68;99332.28;5028570;28;20233;-47
2024/03/24 04:41:48;;;;;;;0.30;0.20;;;;;;;6.53;87.15;99321.59;5036657;28;20583;-48
2024/03/24 04:44:14;;;;;;;0.30;0.20;;;;;;;6.61;86.50;99316.13;5036318;28;20878;-48
2024/03/24 04:46:39;;;;;;;0.30;0.20;;;;;;;6.63;85.48;99316.06;5036060;28;20513;-48
2024/03/24 04:49:05;;;;;;;0.30;0.20;;;;;;;6.65;85.57;99312.47;5035898;28;20475;-49
2024/03/24 04:51:31;;;;;;;0.30;0.20;;;;;;;6.69;85.48;99310.59;5024862;28;20273;-49
2024/03/24 04:53:56;;;;;;;0.30;0.10;;;;;;;6.64;84.81;99312.50;5028804;28;20213;-50
2024/03/24 04:56:22;;;;;;;0.30;0.10;;;;;;;6.75;84.55;99326.28;5029195;28;20473;-49
2024/03/24 04:58:49;;;;;;;0.30;0.20;;;;;;;6.61;85.40;99316.13;5036778;28;20268;-50
2024/03/24 05:01:15;;;;;;;0.30;0.20;;;;;;;6.66;85.26;99318.63;5034910;28;20208;-48
2024/03/24 05:03:41;;;;;;;0.30;0.20;;;;;;;6.59;85.22;99317.94;5037892;28;20493;-49
2024/03/24 05:06:07;;;;;;;0.30;0.20;;;;;;;6.59;85.56;99311.78;5036054;28;20451;-49
2024/03/24 05:08:36;;;;;;;0.30;0.20;;;;;;;6.64;85.48;99316.00;5027190;28;20259;-49
2024/03/24 05:11:02;;;;;;;0.30;0.10;;;;;;;6.60;85.07;99314.38;5026556;23;21078;-52
2024/03/24 05:13:27;;;;;;;0.30;0.17;;;;;;;6.65;83.83;99301.91;5057464;28;20525;-46
2024/03/24 05:15:53;;;;;;;0.30;0.10;;;;;;;6.70;83.85;99312.31;5047866;28;20491;-47
2024/03/24 05:18:19;;;;;;;0.30;0.10;;;;;;;6.62;83.71;99312.56;5062844;28;20703;-49
2024/03/24 05:20:45;;;;;;;0.30;0.20;;;;;;;6.51;83.68;99314.63;5068187;28;20525;-46
2024/03/24 05:23:18;;;;;;;0.30;0.20;;;;;;;6.74;82.95;99306.94;5043397;28;20216;-49
2024/03/24 05:25:53;;;;;;;0.30;0.20;;;;;;;6.76;82.93;99312.16;5065559;28;20521;-51
2024/03/24 05:28:19;;;;;;;0.30;0.20;;;;;;;6.58;82.94;99307.38;5054745;28;20480;-48
2024/03/24 05:30:52;;;;;;;0.30;0.20;;;;;;;6.64;82.38;99307.22;5064206;28;21073;-49
2024/03/24 05:33:18;;;;;;;0.30;0.20;;;;;;;6.77;81.90;99311.25;5031774;28;20460;-47
2024/03/24 05:35:47;;;;;;;0.30;0.10;;;;;;;6.74;82.04;99312.22;5051189;28;20956;-48
2024/03/24 05:38:12;;;;;;;0.30;0.20;;;;;;;6.73;82.18;99304.34;5064733;28;20454;-48
2024/03/24 05:40:38;;;;;;;0.30;0.20;;;;;;;6.95;82.35;99300.13;5075982;28;20497;-47
2024/03/24 05:43:05;;;;;;;0.30;0.17;;;;;;;7.08;81.39;99298.00;5070775;28;20207;-48
2024/03/24 05:45:34;;;;;;;0.30;0.20;;;;;;;7.00;81.21;99306.16;5057370;28;20465;-48
2024/03/24 05:48:01;;;;;;;0.30;0.20;;;;;;;7.03;80.77;99302.56;5071063;28;20828;-48
2024/03/24 05:50:27;;;;;;;0.30;0.17;;;;;;;7.12;80.51;99303.13;5063285;28;20478;-48
2024/03/24 05:52:52;;;;;;;0.30;0.20;;;;;;;6.91;81.35;99306.44;5039907;28;20460;-48
2024/03/24 05:55:18;;;;;;;0.30;0.20;;;;;;;7.07;81.46;99307.69;5040489;28;20835;-48
2024/03/24 05:57:43;;;;;;;0.30;0.20;;;;;;;7.00;81.94;99310.59;5051328;28;20299;-48
2024/03/24 06:00:11;;;;;;;0.30;0.20;;;;;;;7.02;81.71;99316.69;5055550;28;20765;-48
2024/03/24 06:02:37;;;;;;;0.30;0.20;;;;;;;7.01;81.47;99313.19;5068344;28;20223;-47
2024/03/24 06:05:03;;;;;;;0.30;0.20;;;;;;;7.11;82.50;99306.69;5068385;28;20960;-49
2024/03/24 06:07:29;;;;;;;0.30;0.20;;;;;;;7.11;81.51;99306.69;5061199;28;20216;-48
2024/03/24 06:09:55;;;;;;;0.30;0.20;;;;;;;7.06;82.00;99307.75;5050786;28;20236;-49
2024/03/24 06:12:21;;;;;;;0.30;0.10;;;;;;;6.94;81.27;99310.75;5030005;28;20478;-48
2024/03/24 06:14:47;;;;;;;0.30;0.20;;;;;;;6.91;81.88;99313.50;5088485;28;20215;-48
2024/03/24 06:17:13;;;;;;;0.30;0.20;;;;;;;7.00;81.66;99310.59;5074808;28;20457;-47
2024/03/24 06:19:38;;;;;;;0.30;0.10;;;;;;;7.07;81.67;99305.06;5055306;28;20454;-47
2024/03/24 06:22:04;;;;;;;0.30;0.20;;;;;;;6.98;82.26;99294.75;5067538;28;20227;-46
2024/03/24 06:24:29;;;;;;;0.30;0.10;;;;;;;7.06;82.30;99303.31;5074032;28;20223;-49
2024/03/24 06:26:55;;;;;;;0.30;0.10;;;;;;;7.01;81.92;99305.25;5061119;28;20215;-48
2024/03/24 06:29:20;;;;;;;0.30;0.10;;;;;;;6.97;81.26;99298.31;5056965;28;20295;-48
2024/03/24 06:31:46;;;;;;;0.30;0.20;;;;;;;7.08;81.25;99300.63;5054682;28;20714;-48
2024/03/24 06:34:11;;;;;;;0.30;0.20;;;;;;;7.16;81.47;99303.91;5045289;28;20287;-49
2024/03/24 06:36:41;;;;;;;0.30;0.10;;;;;;;7.11;81.36;99309.31;5074326;28;20282;-48
2024/03/24 06:39:08;;;;;;;0.30;0.20;;;;;;;7.18;81.52;99299.44;5069748;28;20220;-48
2024/03/24 06:41:41;;;;;;;0.30;0.20;;;;;;;7.03;82.04;99303.44;5054130;28;21018;-48
2024/03/24 06:44:13;;;;;;;0.30;0.20;;;;;;;7.06;81.95;99305.09;5054329;28;20479;-48
2024/03/24 06:46:39;;;;;;;0.30;0.20;;;;;;;7.04;82.10;99309.56;5054468;28;20450;-48
2024/03/24 06:49:05;;;;;;;0.30;0.20;;;;;;;7.13;82.46;99309.31;5054071;28;20454;-48
2024/03/24 06:51:30;;;;;;;0.30;0.20;;;;;;;7.11;82.45;99304.03;5054321;28;20467;-50
2024/03/24 06:53:56;;;;;;;0.30;0.20;;;;;;;7.24;82.09;99307.19;5054170;28;20543;-48
2024/03/24 06:56:21;;;;;;;0.30;0.20;;;;;;;7.22;82.19;99310.78;5053932;28;20215;-49
2024/03/24 06:58:47;;;;;;;0.30;0.10;;;;;;;7.22;81.92;99306.34;5034059;28;20209;-50
2024/03/24 07:01:13;;;;;;;0.30;0.20;;;;;;;7.12;83.27;99300.47;5034120;28;20233;-47
2024/03/24 07:03:38;;;;;;;0.30;0.10;;;;;;;7.18;83.65;99306.50;5040544;28;20228;-47
2024/03/24 07:06:05;;;;;;;0.30;0.20;;;;;;;7.37;83.42;99297.94;5040841;28;20284;-48
2024/03/24 07:08:31;;;;;;;0.30;0.20;;;;;;;7.43;83.59;99312.78;5047197;28;20227;-48
2024/03/24 07:10:56;;;;;;;0.30;0.20;;;;;;;7.63;82.37;99309.47;5061821;28;20486;-47
2024/03/24 07:13:22;;;;;;;0.60;0.60;;;;;;;7.64;82.01;99308.56;5049541;28;20205;-48
2024/03/24 07:15:47;;;;;;;0.30;0.20;;;;;;;7.70;82.53;99311.03;5046909;28;20216;-47
2024/03/24 07:18:13;;;;;;;0.30;0.20;;;;;;;7.57;83.45;99301.75;5058746;28;20212;-47
2024/03/24 07:20:38;;;;;;;0.30;0.20;;;;;;;7.68;81.68;99299.63;5050013;28;20330;-48
2024/03/24 07:23:04;;;;;;;0.30;0.20;;;;;;;7.70;82.92;99295.16;5052067;28;20262;-49
2024/03/24 07:25:29;;;;;;;0.30;0.20;;;;;;;7.89;82.13;99306.84;5052965;28;20669;-48
2024/03/24 07:27:55;;;;;;;0.30;0.13;;;;;;;7.90;82.66;99307.69;5044198;28;20262;-49
2024/03/24 07:30:20;;;;;;;0.30;0.17;;;;;;;7.84;82.86;99306.13;5053194;28;20822;-48
2024/03/24 07:32:46;;;;;;;0.30;0.20;;;;;;;7.96;82.67;99302.22;5033912;28;20678;-48
2024/03/24 07:35:11;;;;;;;0.30;0.20;;;;;;;7.90;81.19;99302.41;5059260;28;20238;-48
2024/03/24 07:37:37;;;;;;;0.30;0.20;;;;;;;8.12;80.93;99297.25;5039112;28;20267;-49
2024/03/24 07:40:03;;;;;;;0.40;0.40;;;;;;;8.02;82.72;99299.34;5057249;28;20712;-48
2024/03/24 07:42:28;;;;;;;0.30;0.20;;;;;;;7.98;82.00;99295.97;5053115;28;20208;-48
2024/03/24 07:44:54;;;;;;;0.30;0.20;;;;;;;8.28;82.22;99296.66;5064817;28;20228;-49
2024/03/24 07:47:24;;;;;;;0.30;0.20;;;;;;;8.18;81.52;99303.19;5057300;28;20291;-48
2024/03/24 07:49:52;;;;;;;0.30;0.20;;;;;;;8.08;82.78;99299.13;5054807;28;20224;-47
2024/03/24 07:52:18;;;;;;;0.30;0.20;;;;;;;8.05;82.72;99295.72;5053266;28;20481;-47
2024/03/24 07:54:43;;;;;;;0.30;0.20;;;;;;;8.05;82.01;99293.09;5052820;28;20498;-50
2024/03/24 07:57:08;;;;;;;0.30;0.20;;;;;;;8.26;82.11;99287.06;5046489;28;20259;-46
2024/03/24 07:59:34;;;;;;;0.30;0.20;;;;;;;8.33;82.17;99291.19;5032816;28;20550;-47
2024/03/24 08:01:59;;;;;;;0.30;0.20;;;;;;;8.37;82.54;99287.56;5055141;28;20345;-48
2024/03/24 08:04:25;;;;;;;0.30;0.20;;;;;;;8.26;81.75;99295.88;5067218;28;20235;-48
2024/03/24 08:06:51;;;;;;;0.30;0.20;;;;;;;8.28;81.73;99285.22;5058590;28;20216;-47
2024/03/24 08:09:16;;;;;;;0.30;0.20;;;;;;;8.35;83.37;99294.69;5059902;28;20213;-48
2024/03/24 08:11:42;;;;;;;0.30;0.20;;;;;;;8.28;84.04;99290.50;5065737;28;20327;-48
2024/03/24 08:14:07;;;;;;;0.30;0.20;;;;;;;8.16;84.43;99297.09;5059418;28;20610;-48
2024/03/24 08:16:33;;;;;;;0.30;0.20;;;;;;;8.30;83.70;99296.59;5048040;28;20746;-47
2024/03/24 08:18:58;;;;;;;0.30;0.20;;;;;;;8.29;83.48;99281.66;5058055;28;20220;-48
2024/03/24 08:21:24;;;;;;;0.30;0.20;;;;;;;8.46;83.24;99294.31;5072474;28;20261;-47
2024/03/24 08:23:49;;;;;;;0.30;0.20;;;;;;;8.50;82.00;99298.59;5038216;28;20225;-47
2024/03/24 08:26:15;;;;;;;0.30;0.20;;;;;;;8.63;82.74;99302.50;5048873;28;20212;-48
2024/03/24 08:28:40;;;;;;;0.30;0.10;;;;;;;8.61;82.33;99307.00;5072243;28;20276;-47
2024/03/24 08:31:06;;;;;;;0.30;0.20;;;;;;;8.63;82.80;99302.50;5062319;28;20255;-47
2024/03/24 08:33:31;;;;;;;0.30;0.20;;;;;;;8.46;83.89;99308.41;5022651;28;20228;-47
2024/03/24 08:35:57;;;;;;;0.30;0.20;;;;;;;8.56;85.70;99311.59;5053087;28;20219;-47
2024/03/24 08:38:22;;;;;;;0.30;0.20;;;;;;;8.49;85.29;99313.59;5035932;28;20307;-47
2024/03/24 08:40:48;;;;;;;0.30;0.20;;;;;;;8.50;86.53;99315.34;5071264;28;20712;-48
2024/03/24 08:43:14;;;;;;;0.30;0.20;;;;;;;8.64;87.89;99311.34;5065446;28;20212;-48
2024/03/24 08:45:39;;;;;;;0.30;0.20;;;;;;;8.72;86.83;99320.72;5057604;28;20621;-47
2024/03/24 08:48:05;;;;;;;0.30;0.20;;;;;;;8.63;86.64;99315.75;5059809;28;20719;-48
2024/03/24 08:50:30;;;;;;;0.30;0.20;;;;;;;8.61;86.88;99313.16;5043533;28;20715;-47
2024/03/24 08:52:56;;;;;;;0.30;0.20;;;;;;;8.81;85.55;99317.75;5060022;28;20595;-47
2024/03/24 08:55:21;;;;;;;0.30;0.20;;;;;;;8.84;87.13;99314.09;5056292;28;20219;-47
2024/03/24 08:57:47;;;;;;;0.30;0.20;;;;;;;8.77;86.75;99302.00;5066157;28;20208;-47
2024/03/24 09:00:14;;;;;;;0.30;0.20;;;;;;;8.90;86.18;99295.31;5033645;28;20254;-47
2024/03/24 09:02:40;;;;;;;0.30;0.20;;;;;;;9.03;86.62;99307.19;5056623;28;20939;-47
2024/03/24 09:05:06;;;;;;;0.30;0.20;;;;;;;9.13;85.57;99292.66;5047604;28;20547;-47
2024/03/24 09:07:32;;;;;;;0.30;0.20;;;;;;;9.25;84.97;99301.06;5056769;28;20460;-49
2024/03/24 09:09:57;;;;;;;0.30;0.20;;;;;;;9.21;82.82;99292.38;5031411;28;20239;-47
2024/03/24 09:12:23;;;;;;;0.30;0.20;;;;;;;9.24;82.48;99284.28;5031752;28;20300;-47
2024/03/24 09:14:49;;;;;;;0.30;0.20;;;;;;;9.25;81.05;99293.09;5031473;28;20209;-48
2024/03/24 09:17:14;;;;;;;0.30;0.20;;;;;;;9.29;80.61;99290.25;5042445;28;20636;-47
2024/03/24 09:19:40;;;;;;;0.30;0.10;;;;;;;9.33;79.43;99294.53;5060338;28;20646;-48
2024/03/24 09:22:06;;;;;;;0.30;0.20;;;;;;;9.43;78.73;99289.72;5035569;28;20295;-47
2024/03/24 09:24:34;;;;;;;0.30;0.20;;;;;;;9.61;77.70;99289.00;5039609;28;20306;-47
2024/03/24 09:27:02;;;;;;;0.30;0.20;;;;;;;9.46;76.27;99286.97;5051524;28;20216;-47
2024/03/24 09:29:28;;;;;;;0.30;0.20;;;;;;;9.67;76.78;99286.06;5042594;28;20817;-47
2024/03/24 09:31:54;;;;;;;0.40;0.40;;;;;;;9.81;76.66;99296.13;5044262;28;20452;-48
2024/03/24 09:34:20;;;;;;;0.30;0.20;;;;;;;9.63;75.09;99286.28;5063305;28;21006;-47
2024/03/24 09:36:45;;;;;;;0.30;0.20;;;;;;;9.59;75.70;99295.25;5062548;28;20559;-47
2024/03/24 09:39:13;;;;;;;0.30;0.20;;;;;;;9.71;73.79;99290.31;5053505;28;20554;-47
2024/03/24 09:41:46;;;;;;;0.30;0.20;;;;;;;9.69;73.75;99294.81;5039872;28;20642;-49
2024/03/24 09:44:15;;;;;;;0.30;0.20;;;;;;;9.80;74.21;99287.28;5038133;28;20483;-48
2024/03/24 09:46:42;;;;;;;0.30;0.20;;;;;;;9.75;72.82;99289.28;5050458;28;20505;-48
2024/03/24 09:49:12;;;;;;;0.30;0.20;;;;;;;10.10;72.34;99278.97;5059256;28;20496;-48
2024/03/24 09:51:39;;;;;;;0.30;0.20;;;;;;;10.17;72.75;99284.88;5038631;28;20472;-47
2024/03/24 09:54:08;;;;;;;0.30;0.20;;;;;;;10.19;71.36;99277.72;5057724;28;20454;-47
2024/03/24 09:56:35;;;;;;;0.30;0.20;;;;;;;10.74;70.25;99281.47;5056139;28;20462;-47
2024/03/24 09:59:03;;;;;;;0.30;0.20;;;;;;;10.62;70.38;99284.69;5051058;28;21025;-48
2024/03/24 10:01:29;;;;;;;0.30;0.20;;;;;;;10.85;69.25;99281.84;5066054;28;20482;-48
2024/03/24 10:03:55;;;;;;;0.30;0.20;;;;;;;10.80;68.34;99277.66;5071045;28;20485;-47
2024/03/24 10:06:22;;;;;;;0.30;0.20;;;;;;;10.76;68.63;99282.25;5057529;28;20455;-47
2024/03/24 10:08:48;;;;;;;0.30;0.20;;;;;;;10.58;68.89;99283.97;5062218;28;20587;-47
2024/03/24 10:11:34;;;;;;;0.30;0.20;;;;;;;10.84;70.70;99277.47;5050775;28;20501;-47
2024/03/24 10:14:01;;;;;;;0.40;0.20;;;;;;;10.80;72.23;99281.19;5051126;28;20204;-48
2024/03/24 10:16:27;;;;;;;0.30;0.20;;;;;;;10.61;71.75;99294.44;5050921;28;20462;-48
2024/03/24 10:18:53;;;;;;;0.30;0.20;;;;;;;10.32;74.01;99302.84;5061766;28;20461;-49
2024/03/24 10:21:19;;;;;;;0.30;0.20;;;;;;;9.87;77.10;99306.50;5048192;28;20702;-47
2024/03/24 10:23:46;;;;;;;0.30;0.20;;;;;;;9.70;77.38;99314.25;5053026;28;20489;-48
2024/03/24 10:26:19;;;;;;;0.30;0.20;;;;;;;9.49;80.83;99306.25;5057407;28;20519;-47
2024/03/24 10:28:44;;;;;;;0.30;0.20;;;;;;;9.53;83.04;99311.44;5070737;28;20458;-48
2024/03/24 10:31:10;;;;;;;0.30;0.20;;;;;;;9.34;85.67;99317.47;5070608;28;20484;-47
2024/03/24 10:33:38;;;;;;;0.30;0.20;;;;;;;9.39;89.10;99306.69;5058158;28;20712;-47
2024/03/24 10:36:05;;;;;;;0.30;0.20;;;;;;;9.17;88.14;99307.50;5050575;28;20458;-48
2024/03/24 10:38:31;;;;;;;0.30;0.20;;;;;;;9.07;89.61;99313.25;5050390;28;20462;-48
2024/03/24 10:40:58;;;;;;;0.30;0.20;;;;;;;9.19;89.63;99318.09;5050185;28;20577;-48
2024/03/24 10:43:24;;;;;;;0.30;0.20;;;;;;;9.13;90.94;99315.66;5051108;28;20580;-49
2024/03/24 10:45:54;;;;;;;0.30;0.20;;;;;;;8.73;91.44;99327.75;5053465;28;20463;-49
2024/03/24 10:48:26;;;;;;;0.30;0.20;;;;;;;9.00;93.82;99322.34;5041114;28;20459;-49
2024/03/24 10:50:54;;;;;;;0.30;0.20;;;;;;;9.03;93.12;99307.19;5033568;28;20479;-49
2024/03/24 10:53:23;;;;;;;0.30;0.20;;;;;;;8.93;92.49;99307.59;5049990;28;20462;-48
2024/03/24 10:55:50;;;;;;;0.30;0.20;;;;;;;9.00;90.49;99291.41;5058669;28;20465;-48
2024/03/24 10:58:21;;;;;;;0.30;0.20;;;;;;;9.14;91.72;99312.94;5071316;28;20827;-47
2024/03/24 11:00:48;;;;;;;0.30;0.20;;;;;;;8.63;92.48;99325.47;5063156;28;20485;-47
2024/03/24 11:03:14;;;;;;;0.30;0.20;;;;;;;8.22;93.66;99339.25;5073343;28;20559;-47
2024/03/24 11:05:48;;;;;;;0.30;0.20;;;;;;;8.08;96.76;99338.81;5064338;28;20490;-48
2024/03/24 11:08:15;;;;;;;0.30;0.20;;;;;;;7.87;98.91;99335.13;5066935;28;20493;-47
2024/03/24 11:10:43;;;;;;;0.30;0.20;;;;;;;8.13;99.92;99328.97;5064016;28;20497;-52
2024/03/24 11:13:11;;;;;;;0.30;0.20;;;;;;;8.54;99.69;99311.66;5073299;28;20454;-52
2024/03/24 11:15:36;;;;;;;0.30;0.20;;;;;;;8.99;98.94;99307.34;5073163;28;20829;-50
2024/03/24 11:18:03;;;;;;;0.30;0.20;;;;;;;9.13;96.61;99311.22;5073305;28;20516;-51
2024/03/24 11:20:30;;;;;;;0.30;0.20;;;;;;;9.02;96.52;99308.09;5073266;28;20512;-51
2024/03/24 11:22:56;;;;;;;0.30;0.20;;;;;;;9.07;95.56;99300.84;5073160;28;20466;-51
2024/03/24 11:25:23;;;;;;;0.30;0.20;;;;;;;9.52;94.97;99293.78;5062546;28;20950;-51
2024/03/24 11:27:50;;;;;;;0.30;0.20;;;;;;;9.48;94.76;99295.72;5069188;28;20230;-51
2024/03/24 11:30:17;;;;;;;0.30;0.20;;;;;;;9.69;92.16;99286.88;5072738;28;20481;-51
2024/03/24 11:32:57;;;;;;;0.30;0.20;;;;;;;10.06;92.05;99285.34;5073006;28;20465;-52
2024/03/24 11:35:27;;;;;;;0.30;0.20;;;;;;;10.41;92.15;99277.66;5073125;28;20465;-51
2024/03/24 11:37:54;;;;;;;0.30;0.20;;;;;;;10.04;87.95;99272.13;5073180;28;20462;-51